createdAt,value
2022-10-05T00:02:20.397Z,86.72
2022-10-05T00:04:57.326Z,87.58
2022-10-05T00:07:25.052Z,86.08
2022-10-05T00:09:57.002Z,86.55
2022-10-05T00:12:24.827Z,87.06
2022-10-05T00:14:55.519Z,88.07
2022-10-05T00:17:24.470Z,88.05
2022-10-05T00:19:52.858Z,87.99
2022-10-05T00:22:39.777Z,88.42
2022-10-05T00:25:13.357Z,89.11
2022-10-05T00:27:40.393Z,88.01
2022-10-05T00:30:17.164Z,88.67
2022-10-05T00:32:44.711Z,88.63
2022-10-05T00:35:13.013Z,88.85
2022-10-05T00:37:40.266Z,88.33
2022-10-05T00:40:45.747Z,88.86
2022-10-05T00:43:37.490Z,88.00
2022-10-05T00:46:22.413Z,88.88
2022-10-05T00:48:54.339Z,89.26
2022-10-05T00:51:28.849Z,89.09
2022-10-05T00:54:40.339Z,88.59
2022-10-05T00:57:31.848Z,88.85
2022-10-05T01:00:07.118Z,87.97
2022-10-05T01:02:54.606Z,88.37
2022-10-05T01:05:36.332Z,87.47
2022-10-05T01:08:34.621Z,88.28
2022-10-05T01:11:13.733Z,88.31
2022-10-05T01:14:04.452Z,88.18
2022-10-05T01:16:43.907Z,89.20
2022-10-05T01:19:20.038Z,88.04
2022-10-05T01:21:54.117Z,88.89
2022-10-05T01:24:48.465Z,88.81
2022-10-05T01:27:33.584Z,87.98
2022-10-05T01:30:07.121Z,89.55
2022-10-05T01:32:49.048Z,89.22
2022-10-05T01:35:45.006Z,89.13
2022-10-05T01:38:11.704Z,88.91
2022-10-05T01:40:55.489Z,87.63
2022-10-05T01:43:47.080Z,88.80
2022-10-05T01:46:31.772Z,87.81
2022-10-05T01:49:35.303Z,88.47
2022-10-05T01:52:35.180Z,89.24
2022-10-05T01:55:08.012Z,88.24
2022-10-05T01:57:55.693Z,88.76
2022-10-05T02:00:23.389Z,89.18
2022-10-05T02:03:10.670Z,88.02
2022-10-05T02:05:53.891Z,88.68
2022-10-05T02:08:31.477Z,89.36
2022-10-05T02:11:16.990Z,89.63
2022-10-05T02:14:03.465Z,90.01
2022-10-05T02:16:47.383Z,89.28
2022-10-05T02:19:24.118Z,90.86
2022-10-05T02:22:00.161Z,89.64
2022-10-05T02:24:31.180Z,90.19
2022-10-05T02:26:58.959Z,90.82
2022-10-05T02:29:28.731Z,90.40
2022-10-05T02:32:00.775Z,89.91
2022-10-05T02:34:42.080Z,89.73
2022-10-05T02:37:45.753Z,90.50
2022-10-05T02:40:34.982Z,90.56
2022-10-05T02:43:25.037Z,90.20
2022-10-05T02:46:03.853Z,91.11
2022-10-05T02:48:36.293Z,91.83
2022-10-05T02:51:11.712Z,91.65
2022-10-05T02:53:52.084Z,91.68
2022-10-05T02:56:35.223Z,91.91
2022-10-05T02:59:24.920Z,92.02
2022-10-05T03:01:54.668Z,92.23
2022-10-05T03:04:39.961Z,93.29
2022-10-05T03:07:17.247Z,91.94
2022-10-05T03:10:03.587Z,92.36
2022-10-05T03:13:01.917Z,90.76
2022-10-05T03:15:53.887Z,91.38
2022-10-05T03:18:43.494Z,92.07
2022-10-05T03:21:29.439Z,92.12
2022-10-05T03:24:20.775Z,90.99
2022-10-05T03:27:00.776Z,91.91
2022-10-05T03:29:52.238Z,92.23
2022-10-05T03:32:19.318Z,91.88
2022-10-05T03:34:50.774Z,91.87
2022-10-05T03:37:31.840Z,91.54
2022-10-05T03:40:02.196Z,91.29
2022-10-05T03:42:32.438Z,91.15
2022-10-05T03:45:22.200Z,90.75
2022-10-05T03:48:17.847Z,92.13
2022-10-05T03:50:51.236Z,92.16
2022-10-05T03:53:24.442Z,90.79
2022-10-05T03:56:03.095Z,92.03
2022-10-05T03:58:39.009Z,91.18
2022-10-05T04:01:10.712Z,90.95
2022-10-05T04:03:44.045Z,91.07
2022-10-05T04:06:18.160Z,90.81
2022-10-05T04:08:54.887Z,92.23
2022-10-05T04:12:01.203Z,91.57
2022-10-05T04:14:33.611Z,91.31
2022-10-05T04:17:49.608Z,92.33
2022-10-05T04:20:25.132Z,91.99
2022-10-05T04:23:01.117Z,92.04
2022-10-05T04:25:43.995Z,91.73
2022-10-05T04:28:29.611Z,91.93
2022-10-05T04:31:00.068Z,90.87
2022-10-05T04:33:27.711Z,91.55
2022-10-05T04:35:54.414Z,91.66
2022-10-05T04:38:52.414Z,92.03
2022-10-05T04:41:54.954Z,92.10
2022-10-05T04:44:58.951Z,91.96
2022-10-05T04:48:03.082Z,92.58
2022-10-05T04:50:58.556Z,91.09
2022-10-05T04:53:32.718Z,90.24
2022-10-05T04:56:05.676Z,90.64
2022-10-05T04:59:22.801Z,91.18
2022-10-05T05:02:06.781Z,91.15
2022-10-05T05:04:51.673Z,89.83
2022-10-05T05:10:53.854Z,91.11
2022-10-05T05:13:39.417Z,91.70
2022-10-05T05:16:34.143Z,91.24
2022-10-05T05:19:18.425Z,90.94
2022-10-05T05:22:14.762Z,89.16
2022-10-05T05:24:42.065Z,91.01
2022-10-05T05:27:48.197Z,90.39
2022-10-05T05:30:21.959Z,89.97
2022-10-05T05:33:07.671Z,90.47
2022-10-05T05:36:02.524Z,91.69
2022-10-05T05:38:48.214Z,91.53
2022-10-05T05:41:15.071Z,91.70
2022-10-05T05:44:05.463Z,90.37
2022-10-05T05:47:02.432Z,90.99
2022-10-05T05:49:41.650Z,90.28
2022-10-05T05:52:20.619Z,88.48
2022-10-05T05:55:05.420Z,89.67
2022-10-05T05:57:40.778Z,90.29
2022-10-05T06:00:21.577Z,90.27
2022-10-05T06:03:30.747Z,90.30
2022-10-05T06:06:01.466Z,90.22
2022-10-05T06:08:41.069Z,89.59
2022-10-05T06:11:27.338Z,89.78
2022-10-05T06:13:56.464Z,88.13
2022-10-05T06:17:28.211Z,87.41
2022-10-05T06:20:04.878Z,87.65
2022-10-05T06:22:41.275Z,87.90
2022-10-05T06:25:11.581Z,87.47
2022-10-05T06:27:58.361Z,88.92
2022-10-05T06:30:27.623Z,88.99
2022-10-05T06:33:12.040Z,88.14
2022-10-05T06:35:38.917Z,89.18
2022-10-05T06:38:24.770Z,88.61
2022-10-05T06:41:01.766Z,88.08
2022-10-05T06:43:46.926Z,88.34
2022-10-05T06:47:00.672Z,88.78
2022-10-05T06:50:14.604Z,87.04
2022-10-05T06:53:05.770Z,86.80
2022-10-05T06:55:47.665Z,87.41
2022-10-05T06:58:18.730Z,86.91
2022-10-05T07:01:01.782Z,85.45
2022-10-05T07:03:42.063Z,86.55
2022-10-05T07:06:28.063Z,86.64
2022-10-05T07:09:14.562Z,87.17
2022-10-05T07:12:10.097Z,87.33
2022-10-05T07:14:51.995Z,86.56
2022-10-05T07:17:45.554Z,87.54
2022-10-05T07:20:16.108Z,85.66
2022-10-05T07:23:02.106Z,86.39
2022-10-05T07:25:36.882Z,85.41
2022-10-05T07:28:08.049Z,86.33
2022-10-05T07:30:57.881Z,84.71
2022-10-05T07:33:27.881Z,83.86
2022-10-05T07:36:22.332Z,83.08
2022-10-05T07:38:58.722Z,83.85
2022-10-05T07:41:48.308Z,83.40
2022-10-05T07:44:19.377Z,84.51
2022-10-05T07:47:20.774Z,84.49
2022-10-05T07:49:56.145Z,84.98
2022-10-05T07:52:35.048Z,84.92
2022-10-05T07:55:07.131Z,84.83
2022-10-05T07:57:52.587Z,84.93
2022-10-05T08:00:21.678Z,85.15
2022-10-05T08:02:58.339Z,83.79
2022-10-05T08:05:36.097Z,84.83
2022-10-05T08:08:14.326Z,85.64
2022-10-05T08:11:05.301Z,86.84
2022-10-05T08:13:38.043Z,85.76
2022-10-05T08:16:15.022Z,84.55
2022-10-05T08:18:56.989Z,85.28
2022-10-05T08:21:31.089Z,85.96
2022-10-05T08:24:20.539Z,87.17
2022-10-05T08:26:55.485Z,87.29
2022-10-05T08:29:29.838Z,86.29
2022-10-05T08:32:00.704Z,86.14
2022-10-05T08:34:34.537Z,84.07
2022-10-05T08:37:08.756Z,85.43
2022-10-05T08:40:11.114Z,85.67
2022-10-05T08:42:37.839Z,85.92
2022-10-05T08:45:24.049Z,86.21
2022-10-05T08:48:09.241Z,85.82
2022-10-05T08:50:57.991Z,84.76
2022-10-05T08:53:52.783Z,85.06
2022-10-05T08:56:47.146Z,85.53
2022-10-05T08:59:32.368Z,84.94
2022-10-05T09:02:15.834Z,84.79
2022-10-05T09:05:14.883Z,84.72
2022-10-05T09:08:11.485Z,85.20
2022-10-05T09:10:51.961Z,85.69
2022-10-05T09:13:33.889Z,85.33
2022-10-05T09:16:25.126Z,85.47
2022-10-05T09:19:15.069Z,85.50
2022-10-05T09:21:43.817Z,84.28
2022-10-05T09:24:13.612Z,84.90
2022-10-05T09:26:43.409Z,85.12
2022-10-05T09:29:45.676Z,84.53
2022-10-05T09:32:16.673Z,85.63
2022-10-05T09:35:02.062Z,86.62
2022-10-05T09:37:38.483Z,84.80
2022-10-05T09:40:25.996Z,84.69
2022-10-05T09:43:20.151Z,85.44
2022-10-05T09:46:14.878Z,84.70
2022-10-05T09:49:06.298Z,83.18
2022-10-05T09:52:05.910Z,83.39
2022-10-05T09:54:50.809Z,83.09
2022-10-05T09:57:49.272Z,82.85
2022-10-05T10:01:15.950Z,82.69
2022-10-05T10:03:58.867Z,81.86
2022-10-05T10:06:31.409Z,82.85
2022-10-05T10:09:18.401Z,83.73
2022-10-05T10:12:11.582Z,82.43
2022-10-05T10:15:02.852Z,81.09
2022-10-05T10:18:05.308Z,81.68
2022-10-05T10:20:45.188Z,81.20
2022-10-05T10:23:30.117Z,81.41
2022-10-05T10:26:20.872Z,80.37
2022-10-05T10:28:47.579Z,78.43
2022-10-05T10:31:38.227Z,79.36
2022-10-05T10:34:07.909Z,80.08
2022-10-05T10:36:40.737Z,81.23
2022-10-05T10:39:21.975Z,80.46
2022-10-05T10:42:08.540Z,80.18
2022-10-05T10:45:04.703Z,79.50
2022-10-05T10:47:40.978Z,77.60
2022-10-05T10:50:28.968Z,79.02
2022-10-05T10:53:12.520Z,78.15
2022-10-05T10:56:08.728Z,79.54
2022-10-05T10:59:06.295Z,79.71
2022-10-05T11:02:08.261Z,80.79
2022-10-05T11:04:56.727Z,80.47
2022-10-05T11:07:49.073Z,80.13
2022-10-05T11:10:23.581Z,80.89
2022-10-05T11:13:05.286Z,81.34
2022-10-05T11:15:53.646Z,81.41
2022-10-05T11:18:38.908Z,80.83
2022-10-05T11:21:23.078Z,80.58
2022-10-05T11:23:58.839Z,81.54
2022-10-05T11:26:40.777Z,80.03
2022-10-05T11:29:39.829Z,79.03
2022-10-05T11:32:33.964Z,79.63
2022-10-05T11:35:07.456Z,80.13
2022-10-05T11:38:04.083Z,79.77
2022-10-05T11:41:12.427Z,77.95
2022-10-05T11:44:23.899Z,78.45
2022-10-05T11:46:55.138Z,76.67
2022-10-05T11:49:34.305Z,77.18
2022-10-05T11:52:17.182Z,77.77
2022-10-05T11:57:51.757Z,77.54
2022-10-05T12:00:46.028Z,77.67
2022-10-05T12:03:40.402Z,75.87
2022-10-05T12:06:32.152Z,76.35
2022-10-05T12:09:16.972Z,76.66
2022-10-05T12:12:22.084Z,77.29
2022-10-05T12:14:57.138Z,76.58
2022-10-05T12:17:27.305Z,76.76
2022-10-05T12:19:59.905Z,77.58
2022-10-05T12:22:37.735Z,75.34
2022-10-05T12:25:23.541Z,74.53
2022-10-05T12:27:54.199Z,73.72
2022-10-05T12:30:57.736Z,75.41
2022-10-05T12:33:50.309Z,74.02
2022-10-05T12:37:03.679Z,74.42
2022-10-05T12:39:37.847Z,73.62
2022-10-05T12:42:14.296Z,73.79
2022-10-05T12:45:07.804Z,73.02
2022-10-05T12:47:53.653Z,73.76
2022-10-05T12:50:24.519Z,72.81
2022-10-05T12:53:29.837Z,71.37
2022-10-05T12:56:10.176Z,71.41
2022-10-05T12:58:56.473Z,70.65
2022-10-05T13:01:39.344Z,72.30
2022-10-05T13:04:31.182Z,71.23
2022-10-05T13:07:21.506Z,73.90
2022-10-05T13:10:02.125Z,72.09
2022-10-05T13:12:48.051Z,72.50
2022-10-05T13:15:47.211Z,72.00
2022-10-05T13:18:18.204Z,72.10
2022-10-05T13:21:12.843Z,71.86
2022-10-05T13:23:57.850Z,71.11
2022-10-05T13:26:38.072Z,72.88
2022-10-05T13:29:33.286Z,73.29
2022-10-05T13:32:23.512Z,72.63
2022-10-05T13:35:07.908Z,72.32
2022-10-05T13:37:53.247Z,73.49
2022-10-05T13:40:32.338Z,72.97
2022-10-05T13:43:38.955Z,72.32
2022-10-05T13:46:40.213Z,71.66
2022-10-05T13:49:29.586Z,69.82
2022-10-05T13:52:21.481Z,71.67
2022-10-05T13:55:01.958Z,72.21
2022-10-05T13:57:45.295Z,72.41
2022-10-05T14:00:26.396Z,71.96
2022-10-05T14:02:56.442Z,73.07
2022-10-05T14:05:31.030Z,72.06
2022-10-05T14:08:04.204Z,72.62
2022-10-05T14:10:41.161Z,72.00
2022-10-05T14:13:32.542Z,72.46
2022-10-05T14:16:19.349Z,71.83
2022-10-05T14:18:53.804Z,73.01
2022-10-05T14:21:23.623Z,71.84
2022-10-05T14:23:53.600Z,70.79
2022-10-05T14:26:26.419Z,72.23
2022-10-05T14:29:22.452Z,71.43
2022-10-05T14:32:01.793Z,71.72
2022-10-05T14:34:34.997Z,70.85
2022-10-05T14:37:25.369Z,68.50
2022-10-05T14:39:55.271Z,69.50
2022-10-05T14:42:27.844Z,70.78
2022-10-05T14:44:59.733Z,69.66
2022-10-05T14:47:30.232Z,68.29
2022-10-05T14:50:30.872Z,69.33
2022-10-05T14:53:25.060Z,69.46
2022-10-05T14:56:10.992Z,66.40
2022-10-05T14:58:50.671Z,66.28
2022-10-05T15:01:27.765Z,66.72
2022-10-05T15:04:24.349Z,66.76
2022-10-05T15:07:11.065Z,66.34
2022-10-05T15:10:04.526Z,66.09
2022-10-05T15:12:51.999Z,63.79
2022-10-05T15:15:27.876Z,63.18
2022-10-05T15:17:59.728Z,64.14
2022-10-05T15:20:37.830Z,63.04
2022-10-05T15:23:24.581Z,63.49
2022-10-05T15:26:17.464Z,64.08
2022-10-05T15:28:48.452Z,65.47
2022-10-05T15:31:39.316Z,64.07
2022-10-05T15:34:33.884Z,65.75
2022-10-05T15:37:19.265Z,65.52
2022-10-05T15:39:55.636Z,64.73
2022-10-05T15:42:36.462Z,65.40
2022-10-05T15:45:06.578Z,65.13
2022-10-05T15:47:56.645Z,65.83
2022-10-05T15:50:27.070Z,65.91
2022-10-05T15:53:12.931Z,66.10
2022-10-05T15:55:49.574Z,66.23
2022-10-05T15:58:55.744Z,66.82
2022-10-05T16:01:40.257Z,66.18
2022-10-05T16:04:19.751Z,66.85
2022-10-05T16:07:18.635Z,65.60
2022-10-05T16:10:09.874Z,66.19
2022-10-05T16:13:04.458Z,67.01
2022-10-05T16:16:16.002Z,67.32
2022-10-05T16:18:56.009Z,67.79
2022-10-05T16:21:29.372Z,67.81
2022-10-05T16:24:12.300Z,67.85
2022-10-05T16:26:51.599Z,68.01
2022-10-05T16:29:24.797Z,69.29
2022-10-05T16:31:59.372Z,69.08
2022-10-05T16:34:38.273Z,68.28
2022-10-05T16:37:11.025Z,68.94
2022-10-05T16:39:51.807Z,70.26
2022-10-05T16:42:46.399Z,69.71
2022-10-05T16:45:18.903Z,69.91
2022-10-05T16:47:57.497Z,71.28
2022-10-05T16:50:30.950Z,70.47
2022-10-05T16:53:09.509Z,71.30
2022-10-05T16:55:40.960Z,71.00
2022-10-05T16:58:50.041Z,71.18
2022-10-05T17:01:54.123Z,70.97
2022-10-05T17:04:46.962Z,70.29
2022-10-05T17:07:17.180Z,70.55
2022-10-05T17:09:59.483Z,72.36
2022-10-05T17:12:39.671Z,73.21
2022-10-05T17:15:34.838Z,73.70
2022-10-05T17:18:20.424Z,73.10
2022-10-05T17:20:56.131Z,72.36
2022-10-05T17:23:29.315Z,73.63
2022-10-05T17:26:03.449Z,73.21
2022-10-05T17:29:09.297Z,72.34
2022-10-05T17:32:00.760Z,72.51
2022-10-05T17:34:30.319Z,73.03
2022-10-05T17:36:59.795Z,72.61
2022-10-05T17:39:50.092Z,73.05
2022-10-05T17:42:26.077Z,73.12
2022-10-05T17:45:12.239Z,73.92
2022-10-05T17:47:57.466Z,73.17
2022-10-05T17:50:59.589Z,73.23
2022-10-05T17:54:04.238Z,73.55
2022-10-05T17:56:33.814Z,73.06
2022-10-05T17:59:03.851Z,72.87
2022-10-05T18:01:38.431Z,72.51
2022-10-05T18:04:11.319Z,72.49
2022-10-05T18:07:25.461Z,72.16
2022-10-05T18:09:58.314Z,71.70
2022-10-05T18:12:45.372Z,71.67
2022-10-05T18:15:41.383Z,73.04
2022-10-05T18:18:32.972Z,72.19
2022-10-05T18:21:14.663Z,72.33
2022-10-05T18:24:14.116Z,72.78
2022-10-05T18:26:52.339Z,74.05
2022-10-05T18:30:02.123Z,73.58
2022-10-05T18:32:42.299Z,74.31
2022-10-05T18:35:37.164Z,74.48
2022-10-05T18:38:15.335Z,74.63
2022-10-05T18:41:14.488Z,74.93
2022-10-05T18:43:57.752Z,75.31
2022-10-05T18:46:30.329Z,75.62
2022-10-05T18:49:34.679Z,75.39
2022-10-05T18:52:23.060Z,74.56
2022-10-05T18:54:54.828Z,74.55
2022-10-05T18:57:31.583Z,74.30
2022-10-05T19:00:24.429Z,74.96
2022-10-05T19:02:52.896Z,73.10
2022-10-05T19:08:28.398Z,72.19
2022-10-05T19:11:19.087Z,69.89
2022-10-05T19:14:00.959Z,69.91
2022-10-05T19:17:13.303Z,68.31
2022-10-05T19:20:07.835Z,67.79
2022-10-05T19:22:37.620Z,66.76
2022-10-05T19:25:32.408Z,67.22
2022-10-05T19:28:17.992Z,67.72
2022-10-05T19:31:18.133Z,68.46
2022-10-05T19:34:06.946Z,68.89
2022-10-05T19:36:52.235Z,69.27
2022-10-05T19:39:31.619Z,68.63
2022-10-05T19:42:14.968Z,67.05
2022-10-05T19:44:57.836Z,66.18
2022-10-05T19:47:41.275Z,66.66
2022-10-05T19:50:20.685Z,66.67
2022-10-05T19:52:50.820Z,67.40
2022-10-05T19:55:20.446Z,68.03
2022-10-05T19:57:52.469Z,68.08
2022-10-05T20:00:22.439Z,67.72
2022-10-05T20:02:50.837Z,67.98
2022-10-05T20:05:18.338Z,67.81
2022-10-05T20:07:45.185Z,67.19
2022-10-05T20:10:31.281Z,67.26
2022-10-05T20:13:05.051Z,67.51
2022-10-05T20:15:52.200Z,68.25
2022-10-05T20:18:51.025Z,68.95
2022-10-05T20:21:37.241Z,69.16
2022-10-05T20:24:25.496Z,69.35
2022-10-05T20:27:06.651Z,69.42
2022-10-05T20:29:35.503Z,69.23
2022-10-05T20:32:08.834Z,70.09
2022-10-05T20:34:36.856Z,69.37
2022-10-05T20:37:03.811Z,69.62
2022-10-05T20:39:31.459Z,69.42
2022-10-05T20:41:58.765Z,69.69
2022-10-05T20:44:26.725Z,69.59
2022-10-05T20:46:57.559Z,69.72
2022-10-05T20:49:31.665Z,69.85
2022-10-05T20:51:59.032Z,69.00
2022-10-05T20:54:26.842Z,69.10
2022-10-05T20:56:55.754Z,69.07
2022-10-05T20:59:26.315Z,69.28
2022-10-05T21:01:53.149Z,68.90
2022-10-05T21:04:24.663Z,69.42
2022-10-05T21:06:52.882Z,69.59
2022-10-05T21:09:21.577Z,69.60
2022-10-05T21:11:53.014Z,69.41
2022-10-05T21:14:19.815Z,70.03
2022-10-05T21:16:46.573Z,70.01
2022-10-05T21:19:14.542Z,70.01
2022-10-05T21:21:42.697Z,69.92
2022-10-05T21:24:11.219Z,70.40
2022-10-05T21:26:37.971Z,70.05
2022-10-05T21:29:08.986Z,70.00
2022-10-05T21:31:38.744Z,69.72
2022-10-05T21:34:05.719Z,70.25
2022-10-05T21:36:32.902Z,69.53
2022-10-05T21:38:59.790Z,69.40
2022-10-05T21:41:26.959Z,68.95
2022-10-05T21:43:53.727Z,68.77
2022-10-05T21:46:22.193Z,69.06
2022-10-05T21:48:49.613Z,69.59
2022-10-05T21:51:18.622Z,69.22
2022-10-05T21:54:12.571Z,69.79
2022-10-05T21:56:42.967Z,70.93
2022-10-05T21:59:12.599Z,70.80
2022-10-05T22:01:39.351Z,70.94
2022-10-05T22:04:07.658Z,71.11
2022-10-05T22:06:35.328Z,71.82
2022-10-05T22:09:05.197Z,72.26
2022-10-05T22:11:32.519Z,71.72
2022-10-05T22:14:02.787Z,71.66
2022-10-05T22:16:33.362Z,72.62
2022-10-05T22:19:06.955Z,73.13
2022-10-05T22:21:38.225Z,73.32
2022-10-05T22:24:05.367Z,72.92
2022-10-05T22:26:32.486Z,72.27
2022-10-05T22:29:00.279Z,72.17
2022-10-05T22:31:27.817Z,72.62
2022-10-05T22:33:54.738Z,72.12
2022-10-05T22:36:21.911Z,72.36
2022-10-05T22:38:48.755Z,72.62
2022-10-05T22:41:18.250Z,73.02
2022-10-05T22:43:48.779Z,72.78
2022-10-05T22:46:16.157Z,72.44
2022-10-05T22:48:43.299Z,72.13
2022-10-05T22:51:10.364Z,73.24
2022-10-05T22:53:38.940Z,72.76
2022-10-05T22:56:07.705Z,72.37
2022-10-05T22:58:35.394Z,73.02
2022-10-05T23:01:07.323Z,72.59
2022-10-05T23:03:34.763Z,72.55
2022-10-05T23:06:07.271Z,73.01
2022-10-05T23:08:35.718Z,72.56
2022-10-05T23:11:10.453Z,72.39
2022-10-05T23:13:37.364Z,72.00
2022-10-05T23:16:13.292Z,71.71
2022-10-05T23:18:40.435Z,72.26
2022-10-05T23:21:08.595Z,72.19
2022-10-05T23:23:40.404Z,72.34
2022-10-05T23:26:08.690Z,72.54
2022-10-05T23:28:35.521Z,72.67
2022-10-05T23:31:07.006Z,72.64
2022-10-05T23:33:34.973Z,72.58
2022-10-05T23:36:06.754Z,72.52
2022-10-05T23:38:34.864Z,72.36
2022-10-05T23:41:02.622Z,72.63
2022-10-05T23:43:29.789Z,72.93
2022-10-05T23:45:56.699Z,72.77
2022-10-05T23:48:23.575Z,73.17
2022-10-05T23:50:50.425Z,73.34
2022-10-05T23:53:18.092Z,73.79
2022-10-05T23:55:44.856Z,73.35
2022-10-05T23:58:12.462Z,73.70
